createdAt,value
2017-05-26T00:01:13.435Z,95981.31
2017-05-26T00:03:39.977Z,95984.22
2017-05-26T00:06:06.272Z,95979.83
2017-05-26T00:08:34.478Z,95980.24
2017-05-26T00:11:02.486Z,95981.88
2017-05-26T00:13:28.762Z,95978.57
2017-05-26T00:15:58.712Z,95980.12
2017-05-26T00:18:25.126Z,95977.02
2017-05-26T00:20:51.329Z,95974.09
2017-05-26T00:23:19.530Z,95972.00
2017-05-26T00:25:49.538Z,95972.09
2017-05-26T00:28:15.908Z,95974.24
2017-05-26T00:30:46.402Z,95976.74
2017-05-26T00:33:12.760Z,95970.81
2017-05-26T00:35:39.016Z,95972.98
2017-05-26T00:38:05.244Z,95975.14
2017-05-26T00:40:34.897Z,95965.09
2017-05-26T00:43:01.083Z,95964.92
2017-05-26T00:45:28.022Z,95966.45
2017-05-26T00:47:54.459Z,95963.06
2017-05-26T00:50:20.678Z,95965.28
2017-05-26T00:52:47.952Z,95958.92
2017-05-26T00:55:14.258Z,95955.95
2017-05-26T00:57:42.167Z,95954.52
2017-05-26T01:00:08.402Z,95956.28
2017-05-26T01:02:34.777Z,95952.48
2017-05-26T01:05:03.853Z,95949.58
2017-05-26T01:07:30.074Z,95949.19
2017-05-26T01:09:59.417Z,95946.97
2017-05-26T01:12:26.575Z,95945.05
2017-05-26T01:14:56.047Z,95946.98
2017-05-26T01:17:23.354Z,95944.98
2017-05-26T01:19:50.366Z,95947.34
2017-05-26T01:22:16.598Z,95949.34
2017-05-26T01:24:50.305Z,95946.56
2017-05-26T01:27:21.153Z,95950.56
2017-05-26T01:29:48.410Z,95947.98
2017-05-26T01:32:16.791Z,95943.64
2017-05-26T01:34:44.065Z,95944.61
2017-05-26T01:37:12.095Z,95948.57
2017-05-26T01:39:44.392Z,95947.98
2017-05-26T01:42:12.670Z,95948.80
2017-05-26T01:44:44.717Z,95951.06
2017-05-26T01:47:13.739Z,95948.83
2017-05-26T01:49:45.841Z,95949.38
2017-05-26T01:52:12.097Z,95956.88
2017-05-26T01:54:39.361Z,95959.66
2017-05-26T01:57:06.342Z,95962.06
2017-05-26T01:59:33.262Z,95954.52
2017-05-26T02:01:59.537Z,95958.73
2017-05-26T02:04:25.890Z,95956.80
2017-05-26T02:06:52.087Z,95954.63
2017-05-26T02:09:19.041Z,95960.49
2017-05-26T02:11:46.010Z,95958.06
2017-05-26T02:14:12.175Z,95949.91
2017-05-26T02:16:40.080Z,95957.77
2017-05-26T02:19:09.294Z,95954.46
2017-05-26T02:21:35.528Z,95954.75
2017-05-26T02:24:02.809Z,95956.29
2017-05-26T02:26:29.062Z,95959.92
2017-05-26T02:28:57.282Z,95953.33
2017-05-26T02:31:25.482Z,95953.58
2017-05-26T02:33:52.766Z,95954.50
2017-05-26T02:36:18.972Z,95952.66
2017-05-26T02:38:47.138Z,95956.22
2017-05-26T02:41:13.404Z,95955.12
2017-05-26T02:43:42.383Z,95957.77
2017-05-26T02:46:10.414Z,95958.66
2017-05-26T02:48:37.833Z,95958.02
2017-05-26T02:51:04.770Z,95951.70
2017-05-26T02:53:32.023Z,95953.09
2017-05-26T02:56:01.275Z,95956.73
2017-05-26T02:58:27.430Z,95957.97
2017-05-26T03:00:56.603Z,95955.17
2017-05-26T03:03:22.775Z,95955.13
2017-05-26T03:05:49.941Z,95956.88
2017-05-26T03:08:16.307Z,95957.47
2017-05-26T03:10:44.223Z,95951.66
2017-05-26T03:13:11.222Z,95953.78
2017-05-26T03:15:39.427Z,95951.98
2017-05-26T03:18:05.642Z,95953.12
2017-05-26T03:20:34.966Z,95958.02
2017-05-26T03:23:03.230Z,95951.45
2017-05-26T03:25:31.506Z,95958.94
2017-05-26T03:28:02.645Z,95956.64
2017-05-26T03:30:30.382Z,95957.05
2017-05-26T03:32:57.501Z,95958.14
2017-05-26T03:35:27.009Z,95958.30
2017-05-26T03:37:57.820Z,95960.98
2017-05-26T03:40:25.174Z,95957.03
2017-05-26T03:42:54.164Z,95967.26
2017-05-26T03:45:21.643Z,95962.55
2017-05-26T03:47:48.889Z,95965.50
2017-05-26T03:50:20.928Z,95959.42
2017-05-26T03:52:47.437Z,95959.47
2017-05-26T03:55:17.762Z,95967.31
2017-05-26T03:57:48.391Z,95961.42
2017-05-26T04:00:15.304Z,95957.61
2017-05-26T04:02:42.234Z,95951.98
2017-05-26T04:05:08.575Z,95951.34
2017-05-26T04:07:34.841Z,95954.20
2017-05-26T04:10:07.137Z,95955.75
2017-05-26T04:12:34.084Z,95949.64
2017-05-26T04:15:07.544Z,95953.36
2017-05-26T04:17:34.750Z,95952.33
2017-05-26T04:20:05.735Z,95953.92
2017-05-26T04:22:33.721Z,95956.01
2017-05-26T04:25:01.444Z,95954.67
2017-05-26T04:27:28.448Z,95956.05
2017-05-26T04:29:54.682Z,95956.63
2017-05-26T04:32:22.925Z,95955.71
2017-05-26T04:34:50.125Z,95956.70
2017-05-26T04:37:17.363Z,95951.84
2017-05-26T04:39:47.623Z,95961.53
2017-05-26T04:42:14.867Z,95959.30
2017-05-26T04:44:43.031Z,95966.02
2017-05-26T04:47:10.327Z,95962.81
2017-05-26T04:49:41.678Z,95964.06
2017-05-26T04:52:07.896Z,95963.86
2017-05-26T04:54:34.145Z,95962.58
2017-05-26T04:57:00.342Z,95966.89
2017-05-26T04:59:27.392Z,95962.49
2017-05-26T05:01:53.632Z,95971.08
2017-05-26T05:04:20.687Z,95974.53
2017-05-26T05:07:38.553Z,95970.84
2017-05-26T05:10:04.982Z,95971.09
2017-05-26T05:12:32.379Z,95973.95
2017-05-26T05:15:05.032Z,95973.44
2017-05-26T05:17:36.482Z,95976.63
2017-05-26T05:20:03.090Z,95967.53
2017-05-26T05:22:29.668Z,95973.34
2017-05-26T05:24:56.835Z,95976.31
2017-05-26T05:27:25.179Z,95969.83
2017-05-26T05:29:52.249Z,95970.99
2017-05-26T05:32:20.620Z,95970.84
2017-05-26T05:34:50.811Z,95973.66
2017-05-26T05:37:18.240Z,95973.36
2017-05-26T05:39:44.672Z,95974.70
2017-05-26T05:42:11.905Z,95972.10
2017-05-26T05:44:39.109Z,95974.89
2017-05-26T05:47:05.519Z,95976.35
2017-05-26T05:49:41.288Z,95977.61
2017-05-26T05:52:14.971Z,95989.33
2017-05-26T05:54:43.838Z,95982.59
2017-05-26T05:57:11.249Z,95979.36
2017-05-26T05:59:40.732Z,95980.19
2017-05-26T06:02:19.283Z,95986.66
2017-05-26T06:04:46.420Z,95989.38
2017-05-26T06:07:15.639Z,95989.66
2017-05-26T06:09:43.095Z,95989.20
2017-05-26T06:12:11.467Z,95993.94
2017-05-26T06:14:39.652Z,95994.95
2017-05-26T06:17:10.468Z,95997.81
2017-05-26T06:19:36.856Z,96004.63
2017-05-26T06:22:04.283Z,96010.11
2017-05-26T06:24:31.470Z,96011.27
2017-05-26T06:26:58.065Z,96012.66
2017-05-26T06:29:24.480Z,96012.00
2017-05-26T06:31:51.011Z,96023.08
2017-05-26T06:34:17.459Z,96017.33
2017-05-26T06:36:43.851Z,96017.14
2017-05-26T06:39:10.340Z,96015.49
2017-05-26T06:41:37.727Z,96019.28
2017-05-26T06:44:04.112Z,96020.03
2017-05-26T06:46:34.886Z,96025.67
2017-05-26T06:49:02.079Z,96021.20
2017-05-26T06:51:28.666Z,96028.89
2017-05-26T06:53:55.072Z,96027.58
2017-05-26T06:59:10.774Z,96023.06
2017-05-26T07:01:38.275Z,96020.78
2017-05-26T07:04:04.664Z,96024.90
2017-05-26T07:06:31.936Z,96030.51
2017-05-26T07:08:58.775Z,96028.92
2017-05-26T07:11:25.177Z,96030.63
2017-05-26T07:13:51.638Z,96022.16
2017-05-26T07:16:18.096Z,96025.88
2017-05-26T07:18:44.496Z,96021.86
2017-05-26T07:21:11.703Z,96021.79
2017-05-26T07:23:40.481Z,96027.11
2017-05-26T07:26:07.671Z,96025.38
2017-05-26T07:28:34.754Z,96022.52
2017-05-26T07:31:01.964Z,96024.63
2017-05-26T07:33:28.375Z,96025.33
2017-05-26T07:35:55.084Z,96026.62
2017-05-26T07:38:22.435Z,96020.73
2017-05-26T07:40:48.783Z,96021.02
2017-05-26T07:43:15.110Z,96019.02
2017-05-26T07:45:42.320Z,96017.36
2017-05-26T07:48:08.731Z,96018.41
2017-05-26T07:50:35.163Z,96017.95
2017-05-26T07:53:01.639Z,96015.28
2017-05-26T07:55:28.036Z,96007.75
2017-05-26T07:57:54.411Z,96009.66
2017-05-26T08:00:20.856Z,96008.47
2017-05-26T08:02:47.327Z,96008.35
2017-05-26T08:05:14.458Z,96001.52
2017-05-26T08:07:41.719Z,95996.96
2017-05-26T08:10:08.151Z,96004.36
2017-05-26T08:12:34.548Z,95993.59
2017-05-26T08:15:00.903Z,95992.17
2017-05-26T08:17:27.340Z,95994.11
2017-05-26T08:19:54.287Z,95991.98
2017-05-26T08:22:20.726Z,95989.78
2017-05-26T08:24:52.021Z,95994.45
2017-05-26T08:27:19.119Z,95993.19
2017-05-26T08:29:45.851Z,95992.97
2017-05-26T08:32:12.187Z,95987.77
2017-05-26T08:34:38.547Z,95985.30
2017-05-26T08:37:04.958Z,95990.09
2017-05-26T08:39:31.328Z,95980.72
2017-05-26T08:41:57.768Z,95988.52
2017-05-26T08:44:24.270Z,95987.03
2017-05-26T08:46:50.596Z,95987.10
2017-05-26T08:49:16.967Z,95986.47
2017-05-26T08:51:43.323Z,95987.10
2017-05-26T08:54:09.732Z,95992.92
2017-05-26T08:56:36.095Z,95986.13
2017-05-26T08:59:02.687Z,95984.55
2017-05-26T09:01:29.064Z,95989.05
2017-05-26T09:03:55.412Z,95992.17
2017-05-26T09:06:22.920Z,95993.87
2017-05-26T09:08:53.441Z,95989.20
2017-05-26T09:11:19.871Z,95990.19
2017-05-26T09:13:47.091Z,95997.28
2017-05-26T09:16:13.447Z,95994.41
2017-05-26T09:18:39.847Z,95991.59
2017-05-26T09:21:06.207Z,95994.63
2017-05-26T09:23:32.550Z,95998.50
2017-05-26T09:25:58.969Z,95989.55
2017-05-26T09:28:25.472Z,95988.14
2017-05-26T09:30:51.835Z,95985.69
2017-05-26T09:33:18.232Z,95981.92
2017-05-26T09:35:44.571Z,95979.30
2017-05-26T09:38:10.967Z,95976.42
2017-05-26T09:40:37.284Z,95977.47
2017-05-26T09:43:03.674Z,95972.77
2017-05-26T09:45:30.093Z,95970.56
2017-05-26T09:48:07.336Z,95976.63
2017-05-26T09:50:33.759Z,95975.55
2017-05-26T09:53:00.136Z,95967.92
2017-05-26T09:55:26.460Z,95967.69
2017-05-26T09:57:52.987Z,95970.91
2017-05-26T10:00:19.356Z,95966.13
2017-05-26T10:02:45.708Z,95957.60
2017-05-26T10:05:12.181Z,95963.81
2017-05-26T10:07:38.587Z,95963.36
2017-05-26T10:10:05.034Z,95957.97
2017-05-26T10:12:31.496Z,95964.78
2017-05-26T10:15:00.687Z,95969.11
2017-05-26T10:17:27.817Z,95966.33
2017-05-26T10:19:54.624Z,95966.77
2017-05-26T10:22:20.987Z,95958.05
2017-05-26T10:24:47.357Z,95962.94
2017-05-26T10:27:13.794Z,95960.75
2017-05-26T10:29:47.847Z,95955.73
2017-05-26T10:32:14.557Z,95942.14
2017-05-26T10:34:41.015Z,95940.23
2017-05-26T10:37:08.123Z,95940.52
2017-05-26T10:39:34.459Z,95942.77
2017-05-26T10:42:00.811Z,95936.27
2017-05-26T10:44:27.241Z,95935.84
2017-05-26T10:46:53.567Z,95935.77
2017-05-26T10:49:20.225Z,95936.44
2017-05-26T10:51:46.674Z,95939.89
2017-05-26T10:54:13.276Z,95934.79
2017-05-26T10:56:39.942Z,95926.14
2017-05-26T10:59:06.321Z,95919.67
2017-05-26T11:01:38.482Z,95927.36
2017-05-26T11:04:12.016Z,95922.06
2017-05-26T11:06:39.906Z,95921.38
2017-05-26T11:09:06.256Z,95921.23
2017-05-26T11:11:39.483Z,95912.00
2017-05-26T11:14:05.946Z,95919.05
2017-05-26T11:19:22.388Z,95915.75
2017-05-26T11:21:50.100Z,95915.60
2017-05-26T11:24:16.564Z,95920.20
2017-05-26T11:26:46.330Z,95916.44
2017-05-26T11:29:12.811Z,95906.14
2017-05-26T11:31:43.852Z,95915.59
2017-05-26T11:34:10.289Z,95918.50
2017-05-26T11:36:36.799Z,95905.19
2017-05-26T11:39:03.267Z,95898.95
2017-05-26T11:41:29.679Z,95900.83
2017-05-26T11:43:56.134Z,95900.58
2017-05-26T11:46:27.665Z,95890.28
2017-05-26T11:48:57.924Z,95900.11
2017-05-26T11:51:24.344Z,95894.08
2017-05-26T11:53:50.795Z,95896.55
2017-05-26T11:56:17.297Z,95892.51
2017-05-26T11:58:43.767Z,95893.77
2017-05-26T12:01:10.205Z,95892.33
2017-05-26T12:03:36.669Z,95896.23
2017-05-26T12:06:03.067Z,95896.44
2017-05-26T12:08:30.251Z,95885.91
2017-05-26T12:10:56.772Z,95884.77
2017-05-26T12:13:23.945Z,95879.07
2017-05-26T12:15:50.500Z,95886.16
2017-05-26T12:18:16.956Z,95889.11
2017-05-26T12:20:43.363Z,95884.61
2017-05-26T12:23:09.792Z,95882.16
2017-05-26T12:25:36.371Z,95886.86
2017-05-26T12:28:17.703Z,95877.90
2017-05-26T12:30:44.896Z,95872.41
2017-05-26T12:33:11.349Z,95869.27
2017-05-26T12:35:37.733Z,95871.69
2017-05-26T12:38:04.607Z,95870.36
2017-05-26T12:40:31.089Z,95868.48
2017-05-26T12:42:58.236Z,95869.63
2017-05-26T12:45:24.674Z,95867.55
2017-05-26T12:47:51.128Z,95875.13
2017-05-26T12:50:17.491Z,95870.48
2017-05-26T12:52:44.037Z,95868.30
2017-05-26T12:55:10.490Z,95868.53
2017-05-26T12:57:36.978Z,95863.02
2017-05-26T13:00:03.472Z,95863.71
2017-05-26T13:02:29.885Z,95859.89
2017-05-26T13:04:57.051Z,95854.10
2017-05-26T13:07:30.325Z,95852.25
2017-05-26T13:10:00.063Z,95852.05
2017-05-26T13:12:26.635Z,95848.86
2017-05-26T13:14:53.998Z,95850.89
2017-05-26T13:17:20.323Z,95853.44
2017-05-26T13:19:46.753Z,95844.50
2017-05-26T13:22:13.226Z,95848.86
2017-05-26T13:24:39.639Z,95853.19
2017-05-26T13:27:06.806Z,95847.05
2017-05-26T13:29:34.410Z,95837.94
2017-05-26T13:32:00.790Z,95835.31
2017-05-26T13:34:27.217Z,95829.53
2017-05-26T13:39:44.228Z,95833.83
2017-05-26T13:42:11.470Z,95830.30
2017-05-26T13:44:37.884Z,95821.50
2017-05-26T13:47:04.271Z,95817.83
2017-05-26T13:49:31.663Z,95814.76
2017-05-26T13:51:58.126Z,95814.55
2017-05-26T13:54:24.532Z,95817.37
2017-05-26T13:56:51.035Z,95815.77
2017-05-26T13:59:18.296Z,95814.31
2017-05-26T14:01:44.655Z,95811.20
2017-05-26T14:04:11.111Z,95802.56
2017-05-26T14:06:38.305Z,95799.02
2017-05-26T14:09:04.696Z,95801.47
2017-05-26T14:11:31.062Z,95804.19
2017-05-26T14:13:59.938Z,95793.95
2017-05-26T14:16:27.064Z,95790.31
2017-05-26T14:18:53.510Z,95795.11
2017-05-26T14:21:19.849Z,95799.04
2017-05-26T14:23:46.293Z,95787.84
2017-05-26T14:26:12.797Z,95793.95
2017-05-26T14:28:39.331Z,95789.32
2017-05-26T14:31:05.731Z,95787.22
2017-05-26T14:33:32.166Z,95787.63
2017-05-26T14:35:58.595Z,95786.59
2017-05-26T14:38:25.075Z,95785.63
2017-05-26T14:40:53.287Z,95786.79
2017-05-26T14:43:19.682Z,95786.74
2017-05-26T14:46:01.032Z,95784.03
2017-05-26T14:48:27.490Z,95779.30
2017-05-26T14:50:53.751Z,95780.86
2017-05-26T14:53:19.998Z,95780.03
2017-05-26T14:55:46.224Z,95776.41
2017-05-26T14:58:12.465Z,95776.81
2017-05-26T15:00:39.689Z,95781.03
2017-05-26T15:03:05.969Z,95785.28
2017-05-26T15:05:32.288Z,95780.23
2017-05-26T15:07:58.613Z,95782.20
2017-05-26T15:10:25.564Z,95775.31
2017-05-26T15:12:55.342Z,95779.22
2017-05-26T15:15:22.350Z,95781.09
2017-05-26T15:17:48.554Z,95777.38
2017-05-26T15:20:15.507Z,95774.27
2017-05-26T15:22:41.774Z,95778.67
2017-05-26T15:25:08.686Z,95773.95
2017-05-26T15:27:34.950Z,95773.47
2017-05-26T15:30:01.280Z,95768.97
2017-05-26T15:32:27.535Z,95771.08
2017-05-26T15:34:54.474Z,95766.73
2017-05-26T15:37:20.753Z,95762.52
2017-05-26T15:39:46.946Z,95764.56
2017-05-26T15:42:18.727Z,95764.97
2017-05-26T15:44:45.394Z,95762.52
2017-05-26T15:47:11.634Z,95765.64
2017-05-26T15:49:37.912Z,95767.97
2017-05-26T15:52:04.264Z,95759.72
2017-05-26T15:54:30.519Z,95765.08
2017-05-26T15:56:56.734Z,95756.45
2017-05-26T15:59:23.010Z,95751.02
2017-05-26T16:01:49.282Z,95755.01
2017-05-26T16:04:15.535Z,95755.25
2017-05-26T16:06:41.778Z,95757.22
2017-05-26T16:09:08.001Z,95756.34
2017-05-26T16:11:34.954Z,95750.88
2017-05-26T16:14:01.918Z,95753.77
2017-05-26T16:16:28.121Z,95754.83
2017-05-26T16:18:54.364Z,95749.40
2017-05-26T16:21:20.635Z,95747.51
2017-05-26T16:23:46.858Z,95750.28
2017-05-26T16:26:13.080Z,95743.14
2017-05-26T16:28:39.415Z,95744.02
2017-05-26T16:31:05.666Z,95745.66
2017-05-26T16:33:32.584Z,95744.70
2017-05-26T16:35:59.023Z,95748.18
2017-05-26T16:38:25.263Z,95747.63
2017-05-26T16:40:51.514Z,95751.98
2017-05-26T16:43:17.806Z,95753.06
2017-05-26T16:45:44.055Z,95748.22
2017-05-26T16:48:10.504Z,95749.91
2017-05-26T16:50:36.721Z,95752.02
2017-05-26T16:53:02.973Z,95756.55
2017-05-26T16:55:29.279Z,95759.38
2017-05-26T16:57:55.562Z,95759.21
2017-05-26T17:00:22.032Z,95761.63
2017-05-26T17:02:48.678Z,95761.03
2017-05-26T17:05:20.202Z,95767.95
2017-05-26T17:07:47.507Z,95760.41
2017-05-26T17:10:14.614Z,95762.49
2017-05-26T17:12:41.130Z,95768.23
2017-05-26T17:15:07.374Z,95763.60
2017-05-26T17:17:33.701Z,95762.53
2017-05-26T17:20:00.331Z,95767.55
2017-05-26T17:22:26.506Z,95774.72
2017-05-26T17:24:52.791Z,95778.77
2017-05-26T17:27:19.762Z,95772.66
2017-05-26T17:29:46.681Z,95776.55
2017-05-26T17:32:12.988Z,95772.56
2017-05-26T17:34:41.870Z,95778.91
2017-05-26T17:37:08.107Z,95770.37
2017-05-26T17:39:35.105Z,95772.78
2017-05-26T17:42:01.386Z,95775.18
2017-05-26T17:44:28.008Z,95777.58
2017-05-26T17:47:05.194Z,95769.78
2017-05-26T17:49:31.459Z,95771.76
2017-05-26T17:51:57.807Z,95770.73
2017-05-26T17:54:24.079Z,95767.89
2017-05-26T17:56:50.446Z,95763.91
2017-05-26T17:59:16.825Z,95760.55
2017-05-26T18:01:43.941Z,95763.05
2017-05-26T18:04:10.375Z,95773.56
2017-05-26T18:06:36.604Z,95775.02
2017-05-26T18:09:02.875Z,95784.95
2017-05-26T18:11:29.096Z,95789.19
2017-05-26T18:13:56.035Z,95790.84
2017-05-26T18:16:22.205Z,95786.16
2017-05-26T18:18:48.460Z,95789.36
2017-05-26T18:22:51.703Z,95782.95
2017-05-26T18:25:18.429Z,95790.56
2017-05-26T18:27:46.028Z,95792.50
2017-05-26T18:30:14.657Z,95787.73
2017-05-26T18:32:42.605Z,95788.07
2017-05-26T18:35:09.024Z,95792.02
2017-05-26T18:37:36.689Z,95791.56
2017-05-26T18:40:04.783Z,95790.01
2017-05-26T18:42:31.451Z,95794.14
2017-05-26T18:45:02.320Z,95789.39
2017-05-26T18:47:30.560Z,95791.63
2017-05-26T18:49:57.451Z,95796.48
2017-05-26T18:52:25.974Z,95797.05
2017-05-26T18:54:53.893Z,95805.36
2017-05-26T18:57:20.356Z,95800.70
2017-05-26T18:59:46.785Z,95807.63
2017-05-26T19:02:13.175Z,95810.09
2017-05-26T19:04:54.339Z,95815.42
2017-05-26T19:07:25.466Z,95813.22
2017-05-26T19:09:51.988Z,95816.05
2017-05-26T19:12:18.238Z,95812.83
2017-05-26T19:14:44.493Z,95820.69
2017-05-26T19:17:10.757Z,95824.00
2017-05-26T19:19:37.716Z,95827.24
2017-05-26T19:22:04.741Z,95828.30
2017-05-26T19:24:31.031Z,95835.56
2017-05-26T19:26:57.258Z,95833.18
2017-05-26T19:29:23.522Z,95837.55
2017-05-26T19:31:49.835Z,95838.07
2017-05-26T19:34:16.137Z,95842.77
2017-05-26T19:36:42.425Z,95841.09
2017-05-26T19:39:09.477Z,95844.59
2017-05-26T19:41:35.809Z,95847.35
2017-05-26T19:44:02.018Z,95848.19
2017-05-26T19:46:28.310Z,95848.69
2017-05-26T19:48:54.613Z,95849.70
2017-05-26T19:51:36.562Z,95859.39
2017-05-26T19:54:03.533Z,95853.64
2017-05-26T19:56:29.797Z,95858.80
2017-05-26T19:58:56.000Z,95867.11
2017-05-26T20:01:22.313Z,95866.63
2017-05-26T20:03:48.557Z,95867.25
2017-05-26T20:06:14.707Z,95865.03
2017-05-26T20:08:41.042Z,95870.42
2017-05-26T20:11:07.248Z,95867.52
2017-05-26T20:13:40.395Z,95874.71
2017-05-26T20:16:08.114Z,95872.72
2017-05-26T20:18:34.337Z,95881.93
2017-05-26T20:21:00.667Z,95885.13
2017-05-26T20:23:27.623Z,95887.95
2017-05-26T20:25:53.898Z,95897.14
2017-05-26T20:28:20.154Z,95894.15
2017-05-26T20:30:46.359Z,95895.67
2017-05-26T20:33:13.277Z,95896.43
2017-05-26T20:35:40.339Z,95893.22
2017-05-26T20:38:07.298Z,95894.92
2017-05-26T20:40:33.513Z,95898.11
2017-05-26T20:42:59.847Z,95892.66
2017-05-26T20:45:26.178Z,95887.79
2017-05-26T20:47:59.734Z,95883.67
2017-05-26T20:50:26.067Z,95889.84
2017-05-26T20:52:56.178Z,95895.28
2017-05-26T20:55:29.582Z,95884.39
2017-05-26T20:57:57.240Z,95886.98
2017-05-26T21:00:23.471Z,95893.31
2017-05-26T21:02:49.755Z,95891.61
2017-05-26T21:05:16.861Z,95892.13
2017-05-26T21:07:43.184Z,95890.06
2017-05-26T21:10:12.304Z,95896.55
2017-05-26T21:12:38.672Z,95887.00
2017-05-26T21:15:05.881Z,95891.67
2017-05-26T21:17:32.190Z,95895.78
2017-05-26T21:19:58.538Z,95893.67
2017-05-26T21:22:24.804Z,95890.43
2017-05-26T21:24:51.239Z,95898.44
2017-05-26T21:27:18.549Z,95895.61
2017-05-26T21:29:49.339Z,95895.18
2017-05-26T21:32:15.574Z,95893.66
2017-05-26T21:37:07.597Z,95897.36
2017-05-26T21:39:33.848Z,95899.97
2017-05-26T21:42:01.104Z,95901.46
2017-05-26T21:44:27.410Z,95901.28
2017-05-26T21:46:53.734Z,95900.92
2017-05-26T21:49:20.064Z,95904.44
2017-05-26T21:53:21.562Z,95910.84
2017-05-26T21:55:53.771Z,95913.55
2017-05-26T22:00:00.413Z,95902.31
2017-05-26T22:02:26.808Z,95901.72
2017-05-26T22:04:56.676Z,95906.59
2017-05-26T22:07:23.640Z,95906.26
2017-05-26T22:09:49.864Z,95913.05
2017-05-26T22:12:16.141Z,95909.66
2017-05-26T22:14:42.450Z,95913.38
2017-05-26T22:17:09.027Z,95919.19
2017-05-26T22:19:35.547Z,95915.95
2017-05-26T22:22:01.762Z,95918.13
2017-05-26T22:24:27.987Z,95914.27
2017-05-26T22:26:58.473Z,95917.98
2017-05-26T22:29:24.927Z,95916.81
2017-05-26T22:31:52.298Z,95915.42
2017-05-26T22:34:19.529Z,95911.59
2017-05-26T22:36:47.409Z,95913.01
2017-05-26T22:39:18.531Z,95915.70
2017-05-26T22:41:46.308Z,95911.95
2017-05-26T22:44:12.606Z,95911.59
2017-05-26T22:46:38.918Z,95908.20
2017-05-26T22:49:06.597Z,95896.39
2017-05-26T22:51:33.053Z,95904.68
2017-05-26T22:53:59.438Z,95904.43
2017-05-26T22:56:29.989Z,95903.30
2017-05-26T22:58:56.162Z,95907.77
2017-05-26T23:01:22.384Z,95900.87
2017-05-26T23:03:48.696Z,95899.04
2017-05-26T23:06:14.951Z,95901.26
2017-05-26T23:08:41.150Z,95898.16
2017-05-26T23:11:07.841Z,95897.57
2017-05-26T23:13:34.111Z,95901.31
2017-05-26T23:16:00.466Z,95899.70
2017-05-26T23:18:26.779Z,95902.22
2017-05-26T23:20:53.057Z,95903.27
2017-05-26T23:23:19.367Z,95902.72
2017-05-26T23:25:45.667Z,95896.94
2017-05-26T23:28:11.876Z,95904.38
2017-05-26T23:30:38.144Z,95902.67
2017-05-26T23:33:04.427Z,95909.14
2017-05-26T23:35:30.676Z,95904.81
2017-05-26T23:37:57.147Z,95913.01
2017-05-26T23:40:25.015Z,95906.96
2017-05-26T23:43:06.195Z,95911.87
2017-05-26T23:45:36.919Z,95907.78
2017-05-26T23:48:04.170Z,95901.84
2017-05-26T23:50:30.424Z,95902.37
2017-05-26T23:52:56.648Z,95902.39
2017-05-26T23:55:26.190Z,95902.55
2017-05-26T23:57:53.509Z,95901.39
